createdAt,value
2019-06-07T00:01:48.602Z,6.23
2019-06-07T00:06:53.403Z,5.17
2019-06-07T00:11:57.816Z,6.87
2019-06-07T00:17:02.675Z,6.63
2019-06-07T00:22:16.497Z,6.28
2019-06-07T00:27:15.015Z,8.50
2019-06-07T00:32:21.915Z,6.25
2019-06-07T00:37:25.670Z,8.97
2019-06-07T00:42:30.140Z,7.77
2019-06-07T00:47:35.244Z,9.67
2019-06-07T00:53:13.936Z,5.87
2019-06-07T00:57:46.957Z,7.70
2019-06-07T01:02:51.929Z,5.83
2019-06-07T01:07:57.448Z,5.97
2019-06-07T01:13:01.880Z,6.53
2019-06-07T01:23:57.885Z,9.05
2019-06-07T01:28:21.362Z,6.37
2019-06-07T01:33:38.125Z,11.37
2019-06-07T01:38:31.210Z,6.07
2019-06-07T01:43:35.965Z,6.60
2019-06-07T01:48:49.560Z,7.00
2019-06-07T01:53:47.437Z,12.30
2019-06-07T01:58:52.309Z,5.93
2019-06-07T02:03:56.971Z,9.17
2019-06-07T02:09:01.267Z,6.10
2019-06-07T02:14:07.362Z,7.97
2019-06-07T02:19:12.072Z,6.13
2019-06-07T02:24:16.661Z,6.20
2019-06-07T02:29:21.157Z,8.70
2019-06-07T02:34:28.166Z,5.67
2019-06-07T02:39:37.575Z,8.13
2019-06-07T02:44:39.991Z,7.57
2019-06-07T02:49:44.879Z,12.00
2019-06-07T02:54:49.614Z,8.53
2019-06-07T03:00:07.850Z,10.57
2019-06-07T03:05:00.536Z,9.60
2019-06-07T03:10:05.414Z,10.67
2019-06-07T03:15:10.658Z,8.83
2019-06-07T03:20:16.370Z,6.93
2019-06-07T03:25:21.036Z,7.73
2019-06-07T03:30:57.882Z,9.10
2019-06-07T03:35:34.621Z,9.87
2019-06-07T03:40:40.136Z,19.67
2019-06-07T03:45:44.577Z,11.53
2019-06-07T03:51:03.825Z,7.73
2019-06-07T03:55:55.395Z,10.13
2019-06-07T04:01:02.103Z,9.13
2019-06-07T04:06:07.133Z,10.43
2019-06-07T04:11:11.564Z,11.43
2019-06-07T04:16:16.208Z,8.70
2019-06-07T04:21:22.952Z,7.63
2019-06-07T04:26:31.378Z,11.47
2019-06-07T04:31:41.978Z,12.00
2019-06-07T04:36:56.414Z,11.67
2019-06-07T04:41:53.945Z,13.37
2019-06-07T04:47:02.100Z,10.67
2019-06-07T04:52:07.053Z,11.73
2019-06-07T04:57:11.788Z,13.98
2019-06-07T05:02:16.258Z,13.90
2019-06-07T05:07:21.297Z,13.13
2019-06-07T05:12:26.074Z,13.87
2019-06-07T05:17:31.728Z,15.40
2019-06-07T05:22:41.971Z,10.13
2019-06-07T05:27:46.790Z,11.10
2019-06-07T05:32:50.238Z,10.93
2019-06-07T05:37:54.715Z,12.93
2019-06-07T05:42:59.104Z,7.23
2019-06-07T05:48:03.606Z,6.23
2019-06-07T05:53:08.145Z,4.53
2019-06-07T05:58:12.933Z,4.58
2019-06-07T06:03:17.547Z,5.17
2019-06-07T06:08:21.845Z,3.80
2019-06-07T06:13:26.644Z,5.22
2019-06-07T06:18:31.174Z,5.33
2019-06-07T06:23:39.607Z,8.53
2019-06-07T06:28:42.710Z,6.90
2019-06-07T06:33:49.933Z,5.58
2019-06-07T06:38:54.769Z,7.40
2019-06-07T06:43:59.777Z,11.63
2019-06-07T06:49:04.960Z,6.58
2019-06-07T06:54:10.674Z,7.50
2019-06-07T06:59:38.245Z,9.45
2019-06-07T07:04:25.626Z,8.45
2019-06-07T07:09:31.068Z,7.35
2019-06-07T07:14:36.125Z,6.60
2019-06-07T07:19:42.395Z,7.92
2019-06-07T07:24:53.038Z,6.33
2019-06-07T07:30:31.257Z,8.40
2019-06-07T07:35:05.773Z,5.67
2019-06-07T07:40:55.524Z,8.25
2019-06-07T07:45:19.417Z,5.45
2019-06-07T07:50:27.739Z,5.20
2019-06-07T07:55:34.481Z,5.90
2019-06-07T08:01:07.678Z,6.47
2019-06-07T08:05:54.929Z,9.70
2019-06-07T08:11:02.145Z,5.65
2019-06-07T08:16:13.733Z,6.60
2019-06-07T08:21:24.811Z,5.20
2019-06-07T08:26:19.745Z,5.85
2019-06-07T08:31:24.475Z,7.10
2019-06-07T08:36:41.551Z,5.25
2019-06-07T08:41:35.347Z,5.70
2019-06-07T08:46:39.829Z,5.22
2019-06-07T08:51:45.656Z,5.78
2019-06-07T08:56:53.698Z,5.67
2019-06-07T09:01:59.636Z,5.72
2019-06-07T09:07:14.685Z,6.25
2019-06-07T09:12:11.329Z,4.97
2019-06-07T09:17:15.242Z,5.65
2019-06-07T09:22:20.447Z,4.88
2019-06-07T09:27:24.913Z,4.67
2019-06-07T09:32:29.650Z,6.28
2019-06-07T09:42:40.392Z,7.90
2019-06-07T09:47:46.164Z,7.78
2019-06-07T09:52:58.566Z,5.30
2019-06-07T09:58:07.964Z,5.67
2019-06-07T10:03:14.649Z,6.05
2019-06-07T10:08:41.171Z,9.65
2019-06-07T10:13:16.783Z,7.12
2019-06-07T10:18:21.597Z,4.55
2019-06-07T10:23:25.985Z,6.60
2019-06-07T10:28:30.491Z,8.20
2019-06-07T10:33:34.870Z,8.15
2019-06-07T10:38:39.520Z,5.22
2019-06-07T10:43:44.227Z,5.03
2019-06-07T10:48:48.795Z,3.77
2019-06-07T10:53:53.826Z,3.30
2019-06-07T10:58:58.274Z,4.12
2019-06-07T11:04:03.392Z,6.53
2019-06-07T11:09:09.952Z,3.10
2019-06-07T11:14:14.808Z,7.20
2019-06-07T11:19:19.862Z,5.15
2019-06-07T11:24:24.906Z,6.72
2019-06-07T11:29:30.372Z,6.45
2019-06-07T11:34:34.836Z,5.62
2019-06-07T11:39:41.660Z,10.50
2019-06-07T11:44:56.940Z,4.85
2019-06-07T11:49:53.457Z,5.20
2019-06-07T11:54:58.180Z,6.05
2019-06-07T12:00:02.869Z,5.67
2019-06-07T12:05:08.086Z,4.85
2019-06-07T12:10:18.142Z,6.67
2019-06-07T12:15:19.772Z,5.75
2019-06-07T12:20:24.445Z,2.95
2019-06-07T12:25:29.287Z,7.33
2019-06-07T12:30:33.885Z,3.47
2019-06-07T12:35:38.455Z,7.15
2019-06-07T12:40:56.831Z,4.70
2019-06-07T12:45:49.784Z,3.47
2019-06-07T12:50:54.209Z,8.33
2019-06-07T12:56:00.244Z,4.45
2019-06-07T13:01:05.080Z,3.98
2019-06-07T13:06:09.612Z,5.67
2019-06-07T13:11:17.554Z,3.65
2019-06-07T13:16:22.010Z,4.22
2019-06-07T13:21:26.940Z,6.22
2019-06-07T13:26:32.378Z,3.95
2019-06-07T13:31:37.218Z,3.43
2019-06-07T13:36:42.381Z,2.95
2019-06-07T13:41:47.065Z,9.40
2019-06-07T13:46:52.024Z,7.67
2019-06-07T13:51:57.404Z,8.75
2019-06-07T13:57:03.221Z,7.87
2019-06-07T14:02:07.958Z,6.75
2019-06-07T14:07:12.711Z,9.15
2019-06-07T14:12:17.626Z,6.95
2019-06-07T14:17:23.606Z,7.23
2019-06-07T14:22:31.225Z,6.78
2019-06-07T14:27:35.979Z,4.87
2019-06-07T14:32:40.672Z,6.58
2019-06-07T14:37:45.504Z,4.62
2019-06-07T14:42:50.477Z,11.85
2019-06-07T14:47:55.179Z,8.18
2019-06-07T14:53:00.019Z,8.35
2019-06-07T14:58:04.301Z,4.60
2019-06-07T15:03:09.162Z,8.65
2019-06-07T15:08:13.987Z,4.28
2019-06-07T15:13:18.470Z,10.98
2019-06-07T15:18:22.941Z,3.20
2019-06-07T15:23:28.823Z,7.10
2019-06-07T15:28:34.206Z,7.20
2019-06-07T15:33:38.844Z,3.25
2019-06-07T15:38:43.176Z,4.05
2019-06-07T15:43:47.549Z,4.50
2019-06-07T15:48:52.117Z,3.40
2019-06-07T15:53:56.747Z,4.17
2019-06-07T15:59:01.255Z,9.60
2019-06-07T16:04:05.708Z,4.20
2019-06-07T16:09:10.244Z,4.65
2019-06-07T16:14:14.990Z,6.10
2019-06-07T16:19:19.540Z,9.53
2019-06-07T16:24:24.283Z,5.33
2019-06-07T16:29:28.739Z,5.12
2019-06-07T16:34:33.180Z,13.53
2019-06-07T16:39:38.145Z,4.97
2019-06-07T16:44:42.708Z,8.23
2019-06-07T16:49:47.324Z,2.27
2019-06-07T16:54:52.006Z,4.55
2019-06-07T16:59:56.800Z,4.95
2019-06-07T17:05:02.052Z,3.45
2019-06-07T17:10:07.344Z,1.95
2019-06-07T17:15:12.755Z,6.55
2019-06-07T17:20:17.620Z,4.20
2019-06-07T17:25:22.013Z,8.30
2019-06-07T17:30:26.996Z,8.68
2019-06-07T17:35:31.495Z,2.50
2019-06-07T17:40:36.338Z,16.87
2019-06-07T17:45:41.254Z,10.70
2019-06-07T17:50:46.120Z,9.70
2019-06-07T17:55:52.295Z,6.50
2019-06-07T18:00:57.312Z,1.75
2019-06-07T18:06:03.106Z,12.78
2019-06-07T18:11:07.822Z,5.83
2019-06-07T18:16:12.271Z,2.87
2019-06-07T18:21:17.320Z,11.60
2019-06-07T18:26:21.679Z,4.78
2019-06-07T18:31:28.125Z,3.30
2019-06-07T18:36:33.346Z,1.95
2019-06-07T18:41:37.802Z,1.90
2019-06-07T18:46:42.491Z,2.30
2019-06-07T18:51:49.677Z,4.03
2019-06-07T18:56:54.981Z,9.77
2019-06-07T19:01:59.610Z,4.00
2019-06-07T19:07:04.114Z,2.30
2019-06-07T19:12:08.996Z,0.88
2019-06-07T19:17:13.404Z,1.10
2019-06-07T19:22:18.452Z,0.75
2019-06-07T19:27:22.875Z,0.60
2019-06-07T19:32:27.243Z,3.50
2019-06-07T19:37:32.154Z,2.07
2019-06-07T19:42:36.824Z,2.43
2019-06-07T19:47:41.511Z,0.80
2019-06-07T19:52:45.901Z,3.80
2019-06-07T19:57:50.987Z,2.97
2019-06-07T20:02:55.820Z,1.33
2019-06-07T20:08:00.648Z,2.07
2019-06-07T20:13:05.314Z,2.00
2019-06-07T20:18:09.763Z,0.97
2019-06-07T20:23:14.671Z,1.13
2019-06-07T20:28:19.426Z,1.40
2019-06-07T20:33:24.181Z,4.30
2019-06-07T20:38:30.250Z,0.90
2019-06-07T20:43:34.888Z,2.52
2019-06-07T20:48:39.341Z,3.30
2019-06-07T20:53:44.086Z,5.22
2019-06-07T20:58:48.442Z,0.47
2019-06-07T21:03:53.058Z,3.13
2019-06-07T21:08:57.826Z,3.50
2019-06-07T21:14:04.058Z,1.30
2019-06-07T21:19:08.499Z,2.83
2019-06-07T21:24:13.246Z,1.27
2019-06-07T21:29:17.993Z,1.87
2019-06-07T21:34:22.356Z,4.97
2019-06-07T21:39:26.965Z,2.80
2019-06-07T21:44:31.497Z,2.30
2019-06-07T21:49:36.110Z,2.73
2019-06-07T21:54:40.689Z,1.80
2019-06-07T21:59:45.131Z,1.30
2019-06-07T22:04:50.102Z,1.67
2019-06-07T22:09:54.481Z,1.07
2019-06-07T22:14:59.633Z,1.23
2019-06-07T22:20:04.763Z,1.27
2019-06-07T22:25:09.416Z,1.40
2019-06-07T22:30:14.550Z,2.07
2019-06-07T22:35:19.421Z,2.53
2019-06-07T22:40:24.251Z,2.93
2019-06-07T22:45:28.760Z,2.47
2019-06-07T22:50:36.269Z,1.73
2019-06-07T22:55:41.607Z,0.70
2019-06-07T23:00:46.259Z,1.43
2019-06-07T23:05:51.177Z,2.83
2019-06-07T23:10:55.613Z,3.43
2019-06-07T23:16:00.269Z,2.03
2019-06-07T23:21:04.614Z,0.97
2019-06-07T23:26:10.045Z,1.15
2019-06-07T23:31:14.789Z,1.23
2019-06-07T23:36:19.318Z,2.65
2019-06-07T23:41:24.586Z,1.23
2019-06-07T23:46:29.511Z,1.17
2019-06-07T23:51:34.245Z,2.43
2019-06-07T23:56:38.767Z,1.13
